sensor_id;sensor_type;location;lat;lon;timestamp;temperature;humidity
30825;DHT22;17550;45.486;12.222;2023-06-14T00:01:43;19.40;99.90
30825;DHT22;17550;45.486;12.222;2023-06-14T00:04:11;19.40;99.90
30825;DHT22;17550;45.486;12.222;2023-06-14T00:06:38;19.40;99.90
30825;DHT22;17550;45.486;12.222;2023-06-14T00:09:04;19.30;99.90
30825;DHT22;17550;45.486;12.222;2023-06-14T00:11:31;19.20;99.90
30825;DHT22;17550;45.486;12.222;2023-06-14T00:13:57;19.20;99.90
30825;DHT22;17550;45.486;12.222;2023-06-14T00:16:22;19.20;99.90
30825;DHT22;17550;45.486;12.222;2023-06-14T00:18:48;19.20;99.90
30825;DHT22;17550;45.486;12.222;2023-06-14T00:21:14;19.20;99.90
30825;DHT22;17550;45.486;12.222;2023-06-14T00:23:40;19.20;99.90
30825;DHT22;17550;45.486;12.222;2023-06-14T00:26:05;19.20;99.90
30825;DHT22;17550;45.486;12.222;2023-06-14T00:28:31;19.20;99.90
30825;DHT22;17550;45.486;12.222;2023-06-14T00:30:57;19.20;99.90
30825;DHT22;17550;45.486;12.222;2023-06-14T00:33:22;19.20;99.90
30825;DHT22;17550;45.486;12.222;2023-06-14T00:35:48;19.10;99.90
30825;DHT22;17550;45.486;12.222;2023-06-14T00:38:14;19.00;99.90
30825;DHT22;17550;45.486;12.222;2023-06-14T00:40:39;18.90;99.90
30825;DHT22;17550;45.486;12.222;2023-06-14T00:43:05;18.90;99.90
30825;DHT22;17550;45.486;12.222;2023-06-14T00:45:31;18.90;99.90
30825;DHT22;17550;45.486;12.222;2023-06-14T00:48:02;18.90;99.90
30825;DHT22;17550;45.486;12.222;2023-06-14T00:50:28;18.90;99.90
30825;DHT22;17550;45.486;12.222;2023-06-14T00:52:55;18.80;99.90
30825;DHT22;17550;45.486;12.222;2023-06-14T00:55:21;18.90;99.90
30825;DHT22;17550;45.486;12.222;2023-06-14T00:57:48;18.90;99.90
30825;DHT22;17550;45.486;12.222;2023-06-14T01:00:15;18.90;99.90
30825;DHT22;17550;45.486;12.222;2023-06-14T01:02:40;18.90;99.90
30825;DHT22;17550;45.486;12.222;2023-06-14T01:05:06;18.90;99.90
30825;DHT22;17550;45.486;12.222;2023-06-14T01:13:35;18.90;99.90
30825;DHT22;17550;45.486;12.222;2023-06-14T01:16:02;18.90;99.90
30825;DHT22;17550;45.486;12.222;2023-06-14T01:18:29;18.90;99.90
30825;DHT22;17550;45.486;12.222;2023-06-14T01:20:55;18.90;99.90
30825;DHT22;17550;45.486;12.222;2023-06-14T01:23:22;18.90;99.90
30825;DHT22;17550;45.486;12.222;2023-06-14T01:25:49;18.80;99.90
30825;DHT22;17550;45.486;12.222;2023-06-14T01:28:19;18.90;99.90
30825;DHT22;17550;45.486;12.222;2023-06-14T01:30:48;18.90;99.90
30825;DHT22;17550;45.486;12.222;2023-06-14T01:33:17;18.90;99.90
30825;DHT22;17550;45.486;12.222;2023-06-14T01:35:45;18.90;99.90
30825;DHT22;17550;45.486;12.222;2023-06-14T01:38:12;18.80;99.90
30825;DHT22;17550;45.486;12.222;2023-06-14T01:40:39;18.80;99.90
30825;DHT22;17550;45.486;12.222;2023-06-14T01:43:05;18.80;99.90
30825;DHT22;17550;45.486;12.222;2023-06-14T01:45:33;18.80;99.90
30825;DHT22;17550;45.486;12.222;2023-06-14T01:48:00;18.70;99.90
30825;DHT22;17550;45.486;12.222;2023-06-14T01:50:30;18.70;99.90
30825;DHT22;17550;45.486;12.222;2023-06-14T01:52:57;18.80;99.90
30825;DHT22;17550;45.486;12.222;2023-06-14T01:55:23;18.80;99.90
30825;DHT22;17550;45.486;12.222;2023-06-14T01:57:50;18.80;99.90
30825;DHT22;17550;45.486;12.222;2023-06-14T02:00:16;18.80;99.90
30825;DHT22;17550;45.486;12.222;2023-06-14T02:02:43;18.80;99.90
30825;DHT22;17550;45.486;12.222;2023-06-14T02:05:10;18.80;99.90
30825;DHT22;17550;45.486;12.222;2023-06-14T02:07:36;18.80;99.90
30825;DHT22;17550;45.486;12.222;2023-06-14T02:10:03;18.80;99.90
30825;DHT22;17550;45.486;12.222;2023-06-14T02:12:28;18.80;99.90
30825;DHT22;17550;45.486;12.222;2023-06-14T02:14:54;18.80;99.90
30825;DHT22;17550;45.486;12.222;2023-06-14T02:17:21;18.90;99.90
30825;DHT22;17550;45.486;12.222;2023-06-14T02:19:47;19.00;99.90
30825;DHT22;17550;45.486;12.222;2023-06-14T02:22:13;19.00;99.90
30825;DHT22;17550;45.486;12.222;2023-06-14T02:24:40;19.00;99.90
30825;DHT22;17550;45.486;12.222;2023-06-14T02:27:06;19.00;99.90
30825;DHT22;17550;45.486;12.222;2023-06-14T02:29:32;19.00;99.90
30825;DHT22;17550;45.486;12.222;2023-06-14T02:31:58;19.10;99.90
30825;DHT22;17550;45.486;12.222;2023-06-14T02:34:23;19.10;99.90
30825;DHT22;17550;45.486;12.222;2023-06-14T02:36:49;19.10;99.90
30825;DHT22;17550;45.486;12.222;2023-06-14T02:39:15;19.10;99.90
30825;DHT22;17550;45.486;12.222;2023-06-14T02:41:41;19.10;99.90
30825;DHT22;17550;45.486;12.222;2023-06-14T02:44:07;19.10;99.90
30825;DHT22;17550;45.486;12.222;2023-06-14T02:46:33;19.00;99.90
30825;DHT22;17550;45.486;12.222;2023-06-14T02:48:59;19.00;99.90
30825;DHT22;17550;45.486;12.222;2023-06-14T02:51:25;19.00;99.90
30825;DHT22;17550;45.486;12.222;2023-06-14T02:53:51;19.00;99.90
30825;DHT22;17550;45.486;12.222;2023-06-14T02:56:16;19.00;99.90
30825;DHT22;17550;45.486;12.222;2023-06-14T02:58:44;19.00;99.90
30825;DHT22;17550;45.486;12.222;2023-06-14T03:01:10;18.90;99.90
30825;DHT22;17550;45.486;12.222;2023-06-14T03:03:38;18.80;99.90
30825;DHT22;17550;45.486;12.222;2023-06-14T03:06:04;18.80;99.90
30825;DHT22;17550;45.486;12.222;2023-06-14T03:08:33;18.80;99.90
30825;DHT22;17550;45.486;12.222;2023-06-14T03:11:04;18.80;99.90
30825;DHT22;17550;45.486;12.222;2023-06-14T03:13:36;18.70;99.90
30825;DHT22;17550;45.486;12.222;2023-06-14T03:16:03;18.70;99.90
30825;DHT22;17550;45.486;12.222;2023-06-14T03:18:31;18.70;99.90
30825;DHT22;17550;45.486;12.222;2023-06-14T03:21:01;18.80;99.90
30825;DHT22;17550;45.486;12.222;2023-06-14T03:23:27;18.80;99.90
30825;DHT22;17550;45.486;12.222;2023-06-14T03:25:52;18.80;99.90
30825;DHT22;17550;45.486;12.222;2023-06-14T03:28:18;18.80;99.90
30825;DHT22;17550;45.486;12.222;2023-06-14T03:30:44;18.90;99.90
30825;DHT22;17550;45.486;12.222;2023-06-14T03:33:10;19.00;99.90
30825;DHT22;17550;45.486;12.222;2023-06-14T03:35:36;19.00;99.90
30825;DHT22;17550;45.486;12.222;2023-06-14T03:38:02;19.10;99.90
30825;DHT22;17550;45.486;12.222;2023-06-14T03:40:29;19.20;99.90
30825;DHT22;17550;45.486;12.222;2023-06-14T03:42:55;19.20;99.90
30825;DHT22;17550;45.486;12.222;2023-06-14T03:45:21;19.30;99.90
30825;DHT22;17550;45.486;12.222;2023-06-14T03:47:46;19.40;99.90
30825;DHT22;17550;45.486;12.222;2023-06-14T03:50:13;19.60;99.90
30825;DHT22;17550;45.486;12.222;2023-06-14T03:52:39;19.70;99.90
30825;DHT22;17550;45.486;12.222;2023-06-14T03:55:05;20.20;99.90
30825;DHT22;17550;45.486;12.222;2023-06-14T03:57:31;20.90;99.90
30825;DHT22;17550;45.486;12.222;2023-06-14T03:59:57;21.80;99.90
30825;DHT22;17550;45.486;12.222;2023-06-14T04:02:22;22.60;99.90
30825;DHT22;17550;45.486;12.222;2023-06-14T04:04:49;23.40;99.90
30825;DHT22;17550;45.486;12.222;2023-06-14T04:07:15;24.10;99.90
30825;DHT22;17550;45.486;12.222;2023-06-14T04:09:45;24.70;99.90
30825;DHT22;17550;45.486;12.222;2023-06-14T04:12:10;25.20;99.90
30825;DHT22;17550;45.486;12.222;2023-06-14T04:14:40;25.40;99.80
30825;DHT22;17550;45.486;12.222;2023-06-14T04:17:06;25.30;99.80
30825;DHT22;17550;45.486;12.222;2023-06-14T04:19:32;25.00;99.70
30825;DHT22;17550;45.486;12.222;2023-06-14T04:21:58;24.80;99.90
30825;DHT22;17550;45.486;12.222;2023-06-14T04:24:26;24.90;99.90
30825;DHT22;17550;45.486;12.222;2023-06-14T04:26:59;25.10;99.30
30825;DHT22;17550;45.486;12.222;2023-06-14T04:29:26;25.60;98.90
30825;DHT22;17550;45.486;12.222;2023-06-14T04:31:54;26.00;98.20
30825;DHT22;17550;45.486;12.222;2023-06-14T04:34:20;26.70;97.20
30825;DHT22;17550;45.486;12.222;2023-06-14T04:36:47;27.00;96.50
30825;DHT22;17550;45.486;12.222;2023-06-14T04:39:22;27.60;95.70
30825;DHT22;17550;45.486;12.222;2023-06-14T04:41:48;28.00;95.30
30825;DHT22;17550;45.486;12.222;2023-06-14T04:44:18;28.30;94.40
30825;DHT22;17550;45.486;12.222;2023-06-14T04:46:45;28.50;93.80
30825;DHT22;17550;45.486;12.222;2023-06-14T04:49:18;28.60;93.50
30825;DHT22;17550;45.486;12.222;2023-06-14T04:51:45;28.70;93.50
30825;DHT22;17550;45.486;12.222;2023-06-14T04:54:11;29.10;93.00
30825;DHT22;17550;45.486;12.222;2023-06-14T04:56:41;29.20;92.40
30825;DHT22;17550;45.486;12.222;2023-06-14T04:59:08;29.10;92.40
30825;DHT22;17550;45.486;12.222;2023-06-14T05:01:34;28.80;92.60
30825;DHT22;17550;45.486;12.222;2023-06-14T05:04:00;28.50;92.90
30825;DHT22;17550;45.486;12.222;2023-06-14T05:06:26;28.60;93.20
30825;DHT22;17550;45.486;12.222;2023-06-14T05:08:53;28.90;92.50
30825;DHT22;17550;45.486;12.222;2023-06-14T05:11:19;28.80;92.50
30825;DHT22;17550;45.486;12.222;2023-06-14T05:13:45;28.40;92.60
30825;DHT22;17550;45.486;12.222;2023-06-14T05:16:13;27.50;93.40
30825;DHT22;17550;45.486;12.222;2023-06-14T05:18:41;27.20;94.00
30825;DHT22;17550;45.486;12.222;2023-06-14T05:21:06;26.90;94.40
30825;DHT22;17550;45.486;12.222;2023-06-14T05:23:32;26.70;94.60
30825;DHT22;17550;45.486;12.222;2023-06-14T05:25:58;26.40;95.10
30825;DHT22;17550;45.486;12.222;2023-06-14T05:28:24;26.00;95.60
30825;DHT22;17550;45.486;12.222;2023-06-14T05:30:50;25.40;96.20
30825;DHT22;17550;45.486;12.222;2023-06-14T05:33:16;25.00;97.30
30825;DHT22;17550;45.486;12.222;2023-06-14T05:35:42;24.80;97.70
30825;DHT22;17550;45.486;12.222;2023-06-14T05:38:08;24.70;98.00
30825;DHT22;17550;45.486;12.222;2023-06-14T05:40:34;24.50;98.00
30825;DHT22;17550;45.486;12.222;2023-06-14T05:43:00;24.10;98.80
30825;DHT22;17550;45.486;12.222;2023-06-14T05:45:25;24.00;98.90
30825;DHT22;17550;45.486;12.222;2023-06-14T05:47:52;23.80;99.20
30825;DHT22;17550;45.486;12.222;2023-06-14T05:50:20;23.70;99.10
30825;DHT22;17550;45.486;12.222;2023-06-14T05:52:46;23.70;99.20
30825;DHT22;17550;45.486;12.222;2023-06-14T05:55:12;23.50;99.90
30825;DHT22;17550;45.486;12.222;2023-06-14T05:57:38;23.30;99.90
30825;DHT22;17550;45.486;12.222;2023-06-14T06:00:06;23.30;99.70
30825;DHT22;17550;45.486;12.222;2023-06-14T06:02:41;23.30;99.90
30825;DHT22;17550;45.486;12.222;2023-06-14T06:05:09;23.30;99.90
30825;DHT22;17550;45.486;12.222;2023-06-14T06:07:35;23.30;99.90
30825;DHT22;17550;45.486;12.222;2023-06-14T06:10:01;23.30;99.90
30825;DHT22;17550;45.486;12.222;2023-06-14T06:12:26;23.30;99.90
30825;DHT22;17550;45.486;12.222;2023-06-14T06:14:52;23.20;99.90
30825;DHT22;17550;45.486;12.222;2023-06-14T06:17:18;23.20;99.90
30825;DHT22;17550;45.486;12.222;2023-06-14T06:19:44;23.20;99.90
30825;DHT22;17550;45.486;12.222;2023-06-14T06:22:10;23.40;99.90
30825;DHT22;17550;45.486;12.222;2023-06-14T06:24:35;23.70;99.90
30825;DHT22;17550;45.486;12.222;2023-06-14T06:27:01;23.90;99.90
30825;DHT22;17550;45.486;12.222;2023-06-14T06:29:27;24.30;99.30
30825;DHT22;17550;45.486;12.222;2023-06-14T06:31:53;24.30;99.70
30825;DHT22;17550;45.486;12.222;2023-06-14T06:34:18;24.50;99.10
30825;DHT22;17550;45.486;12.222;2023-06-14T06:36:44;24.50;98.70
30825;DHT22;17550;45.486;12.222;2023-06-14T06:39:10;24.60;98.00
30825;DHT22;17550;45.486;12.222;2023-06-14T06:41:37;24.70;98.80
30825;DHT22;17550;45.486;12.222;2023-06-14T06:44:05;24.50;97.20
30825;DHT22;17550;45.486;12.222;2023-06-14T06:46:32;24.10;97.10
30825;DHT22;17550;45.486;12.222;2023-06-14T06:48:58;23.80;97.40
30825;DHT22;17550;45.486;12.222;2023-06-14T06:51:23;23.70;97.40
30825;DHT22;17550;45.486;12.222;2023-06-14T06:53:58;23.60;98.20
30825;DHT22;17550;45.486;12.222;2023-06-14T06:56:24;23.50;97.80
30825;DHT22;17550;45.486;12.222;2023-06-14T06:58:52;23.40;98.20
30825;DHT22;17550;45.486;12.222;2023-06-14T07:01:18;23.30;98.30
30825;DHT22;17550;45.486;12.222;2023-06-14T07:03:46;23.30;98.10
30825;DHT22;17550;45.486;12.222;2023-06-14T07:06:12;23.30;98.30
30825;DHT22;17550;45.486;12.222;2023-06-14T07:08:38;23.30;98.30
30825;DHT22;17550;45.486;12.222;2023-06-14T07:11:05;23.40;97.90
30825;DHT22;17550;45.486;12.222;2023-06-14T07:13:31;23.20;98.10
30825;DHT22;17550;45.486;12.222;2023-06-14T07:16:00;23.10;98.10
30825;DHT22;17550;45.486;12.222;2023-06-14T07:18:26;23.00;98.30
30825;DHT22;17550;45.486;12.222;2023-06-14T07:20:53;23.10;97.90
30825;DHT22;17550;45.486;12.222;2023-06-14T07:23:22;23.10;98.30
30825;DHT22;17550;45.486;12.222;2023-06-14T07:25:48;23.30;97.40
30825;DHT22;17550;45.486;12.222;2023-06-14T07:28:16;23.20;97.60
30825;DHT22;17550;45.486;12.222;2023-06-14T07:30:41;23.30;98.10
30825;DHT22;17550;45.486;12.222;2023-06-14T07:33:07;23.50;97.80
30825;DHT22;17550;45.486;12.222;2023-06-14T07:35:34;23.70;97.50
30825;DHT22;17550;45.486;12.222;2023-06-14T07:38:02;23.80;97.30
30825;DHT22;17550;45.486;12.222;2023-06-14T07:40:27;23.90;97.60
30825;DHT22;17550;45.486;12.222;2023-06-14T07:42:53;23.80;97.00
30825;DHT22;17550;45.486;12.222;2023-06-14T07:45:20;23.80;97.50
30825;DHT22;17550;45.486;12.222;2023-06-14T07:47:46;24.10;97.70
30825;DHT22;17550;45.486;12.222;2023-06-14T07:50:11;24.20;96.70
30825;DHT22;17550;45.486;12.222;2023-06-14T07:52:38;24.30;96.10
30825;DHT22;17550;45.486;12.222;2023-06-14T07:55:05;24.40;96.50
30825;DHT22;17550;45.486;12.222;2023-06-14T07:57:31;24.60;95.90
30825;DHT22;17550;45.486;12.222;2023-06-14T07:59:57;24.60;95.50
30825;DHT22;17550;45.486;12.222;2023-06-14T08:02:22;24.50;94.90
30825;DHT22;17550;45.486;12.222;2023-06-14T08:04:48;24.60;95.50
30825;DHT22;17550;45.486;12.222;2023-06-14T08:07:14;24.40;95.20
30825;DHT22;17550;45.486;12.222;2023-06-14T08:09:40;24.40;95.70
30825;DHT22;17550;45.486;12.222;2023-06-14T08:12:07;24.50;94.20
30825;DHT22;17550;45.486;12.222;2023-06-14T08:14:35;24.30;95.00
30825;DHT22;17550;45.486;12.222;2023-06-14T08:17:01;24.20;95.60
30825;DHT22;17550;45.486;12.222;2023-06-14T08:19:27;24.30;95.80
30825;DHT22;17550;45.486;12.222;2023-06-14T08:21:53;24.40;95.50
30825;DHT22;17550;45.486;12.222;2023-06-14T08:24:23;24.50;95.40
30825;DHT22;17550;45.486;12.222;2023-06-14T08:26:55;24.40;95.30
30825;DHT22;17550;45.486;12.222;2023-06-14T08:29:22;24.30;95.60
30825;DHT22;17550;45.486;12.222;2023-06-14T08:31:47;24.30;95.90
30825;DHT22;17550;45.486;12.222;2023-06-14T08:34:13;24.40;95.20
30825;DHT22;17550;45.486;12.222;2023-06-14T08:36:39;24.60;95.30
30825;DHT22;17550;45.486;12.222;2023-06-14T08:39:05;24.60;94.80
30825;DHT22;17550;45.486;12.222;2023-06-14T08:41:31;24.80;95.30
30825;DHT22;17550;45.486;12.222;2023-06-14T08:44:01;24.80;94.90
30825;DHT22;17550;45.486;12.222;2023-06-14T08:46:26;25.00;94.70
30825;DHT22;17550;45.486;12.222;2023-06-14T08:48:55;25.20;94.80
30825;DHT22;17550;45.486;12.222;2023-06-14T08:51:25;25.40;94.00
30825;DHT22;17550;45.486;12.222;2023-06-14T08:53:54;25.40;93.90
30825;DHT22;17550;45.486;12.222;2023-06-14T08:56:30;25.40;94.00
30825;DHT22;17550;45.486;12.222;2023-06-14T08:58:57;25.60;93.60
30825;DHT22;17550;45.486;12.222;2023-06-14T09:01:28;25.60;94.40
30825;DHT22;17550;45.486;12.222;2023-06-14T09:03:54;25.50;94.00
30825;DHT22;17550;45.486;12.222;2023-06-14T09:06:21;25.30;93.90
30825;DHT22;17550;45.486;12.222;2023-06-14T09:08:49;25.40;93.80
30825;DHT22;17550;45.486;12.222;2023-06-14T09:11:17;25.40;93.60
30825;DHT22;17550;45.486;12.222;2023-06-14T09:13:45;25.30;94.20
30825;DHT22;17550;45.486;12.222;2023-06-14T09:16:12;25.40;93.50
30825;DHT22;17550;45.486;12.222;2023-06-14T09:18:43;25.40;93.30
30825;DHT22;17550;45.486;12.222;2023-06-14T09:21:11;25.40;93.30
30825;DHT22;17550;45.486;12.222;2023-06-14T09:23:45;25.40;92.50
30825;DHT22;17550;45.486;12.222;2023-06-14T09:26:13;25.50;93.50
30825;DHT22;17550;45.486;12.222;2023-06-14T09:28:42;25.70;92.90
30825;DHT22;17550;45.486;12.222;2023-06-14T09:31:11;25.80;92.80
30825;DHT22;17550;45.486;12.222;2023-06-14T09:33:37;25.80;92.70
30825;DHT22;17550;45.486;12.222;2023-06-14T09:36:09;25.80;93.10
30825;DHT22;17550;45.486;12.222;2023-06-14T09:38:40;26.10;93.20
30825;DHT22;17550;45.486;12.222;2023-06-14T09:41:05;26.10;92.60
30825;DHT22;17550;45.486;12.222;2023-06-14T09:43:31;26.10;92.60
30825;DHT22;17550;45.486;12.222;2023-06-14T09:46:00;26.10;92.50
30825;DHT22;17550;45.486;12.222;2023-06-14T09:48:26;26.30;92.40
30825;DHT22;17550;45.486;12.222;2023-06-14T09:50:55;26.10;92.50
30825;DHT22;17550;45.486;12.222;2023-06-14T09:53:24;26.20;92.30
30825;DHT22;17550;45.486;12.222;2023-06-14T09:55:52;26.40;92.70
30825;DHT22;17550;45.486;12.222;2023-06-14T09:58:20;26.30;92.00
30825;DHT22;17550;45.486;12.222;2023-06-14T10:00:50;26.30;91.80
30825;DHT22;17550;45.486;12.222;2023-06-14T10:03:29;26.40;91.20
30825;DHT22;17550;45.486;12.222;2023-06-14T10:05:58;26.50;91.50
30825;DHT22;17550;45.486;12.222;2023-06-14T10:08:27;26.80;92.10
30825;DHT22;17550;45.486;12.222;2023-06-14T10:10:57;26.90;91.50
30825;DHT22;17550;45.486;12.222;2023-06-14T10:13:26;26.80;91.50
30825;DHT22;17550;45.486;12.222;2023-06-14T10:18:51;26.80;90.70
30825;DHT22;17550;45.486;12.222;2023-06-14T10:23:51;26.90;90.70
30825;DHT22;17550;45.486;12.222;2023-06-14T10:26:22;27.10;90.90
30825;DHT22;17550;45.486;12.222;2023-06-14T10:29:08;27.20;90.60
30825;DHT22;17550;45.486;12.222;2023-06-14T10:34:10;26.90;91.40
30825;DHT22;17550;45.486;12.222;2023-06-14T10:36:36;26.90;91.50
30825;DHT22;17550;45.486;12.222;2023-06-14T10:39:08;26.90;90.90
30825;DHT22;17550;45.486;12.222;2023-06-14T10:41:37;26.80;91.10
30825;DHT22;17550;45.486;12.222;2023-06-14T10:46:39;27.00;90.80
30825;DHT22;17550;45.486;12.222;2023-06-14T10:49:05;27.00;91.30
30825;DHT22;17550;45.486;12.222;2023-06-14T10:51:39;26.80;91.40
30825;DHT22;17550;45.486;12.222;2023-06-14T10:54:15;26.90;91.80
30825;DHT22;17550;45.486;12.222;2023-06-14T10:56:51;27.00;91.60
30825;DHT22;17550;45.486;12.222;2023-06-14T10:59:19;27.10;91.20
30825;DHT22;17550;45.486;12.222;2023-06-14T11:01:57;27.00;91.50
30825;DHT22;17550;45.486;12.222;2023-06-14T11:04:46;27.30;91.20
30825;DHT22;17550;45.486;12.222;2023-06-14T11:12:38;27.00;90.40
30825;DHT22;17550;45.486;12.222;2023-06-14T11:15:06;26.80;90.80
30825;DHT22;17550;45.486;12.222;2023-06-14T11:17:33;26.90;90.40
30825;DHT22;17550;45.486;12.222;2023-06-14T11:20:12;27.00;89.50
30825;DHT22;17550;45.486;12.222;2023-06-14T11:22:44;26.90;89.90
30825;DHT22;17550;45.486;12.222;2023-06-14T11:25:13;26.90;90.30
30825;DHT22;17550;45.486;12.222;2023-06-14T11:27:41;27.00;90.70
30825;DHT22;17550;45.486;12.222;2023-06-14T11:30:07;27.10;90.00
30825;DHT22;17550;45.486;12.222;2023-06-14T11:32:34;27.10;90.20
30825;DHT22;17550;45.486;12.222;2023-06-14T11:35:00;27.00;90.40
30825;DHT22;17550;45.486;12.222;2023-06-14T11:37:27;27.10;90.50
30825;DHT22;17550;45.486;12.222;2023-06-14T11:39:58;27.30;90.10
30825;DHT22;17550;45.486;12.222;2023-06-14T11:42:26;27.40;89.40
30825;DHT22;17550;45.486;12.222;2023-06-14T11:44:53;27.60;88.70
30825;DHT22;17550;45.486;12.222;2023-06-14T11:47:19;27.70;87.60
30825;DHT22;17550;45.486;12.222;2023-06-14T11:49:46;27.70;86.10
30825;DHT22;17550;45.486;12.222;2023-06-14T11:52:12;27.70;84.60
30825;DHT22;17550;45.486;12.222;2023-06-14T11:54:37;27.40;83.10
30825;DHT22;17550;45.486;12.222;2023-06-14T11:57:09;27.40;86.20
30825;DHT22;17550;45.486;12.222;2023-06-14T11:59:40;27.60;88.30
30825;DHT22;17550;45.486;12.222;2023-06-14T12:02:06;27.70;88.00
30825;DHT22;17550;45.486;12.222;2023-06-14T12:04:32;27.70;87.60
30825;DHT22;17550;45.486;12.222;2023-06-14T12:07:09;27.60;89.40
30825;DHT22;17550;45.486;12.222;2023-06-14T12:09:36;27.50;88.80
30825;DHT22;17550;45.486;12.222;2023-06-14T12:12:02;27.20;89.10
30825;DHT22;17550;45.486;12.222;2023-06-14T12:14:32;27.10;88.00
30825;DHT22;17550;45.486;12.222;2023-06-14T12:17:05;27.20;89.40
30825;DHT22;17550;45.486;12.222;2023-06-14T12:19:45;27.20;86.40
30825;DHT22;17550;45.486;12.222;2023-06-14T12:22:13;27.40;87.80
30825;DHT22;17550;45.486;12.222;2023-06-14T12:24:39;27.70;88.70
30825;DHT22;17550;45.486;12.222;2023-06-14T12:27:05;27.90;86.90
30825;DHT22;17550;45.486;12.222;2023-06-14T12:29:34;28.40;86.60
30825;DHT22;17550;45.486;12.222;2023-06-14T12:32:01;28.70;85.40
30825;DHT22;17550;45.486;12.222;2023-06-14T12:34:27;28.70;85.30
30825;DHT22;17550;45.486;12.222;2023-06-14T12:36:54;28.50;85.20
30825;DHT22;17550;45.486;12.222;2023-06-14T12:39:20;28.40;86.90
30825;DHT22;17550;45.486;12.222;2023-06-14T12:41:46;28.50;85.40
30825;DHT22;17550;45.486;12.222;2023-06-14T12:44:12;28.10;86.40
30825;DHT22;17550;45.486;12.222;2023-06-14T12:46:39;27.80;87.60
30825;DHT22;17550;45.486;12.222;2023-06-14T12:49:07;27.70;89.10
30825;DHT22;17550;45.486;12.222;2023-06-14T12:51:33;27.40;88.60
30825;DHT22;17550;45.486;12.222;2023-06-14T12:53:59;27.20;88.70
30825;DHT22;17550;45.486;12.222;2023-06-14T12:56:24;27.30;88.30
30825;DHT22;17550;45.486;12.222;2023-06-14T12:58:51;27.60;88.50
30825;DHT22;17550;45.486;12.222;2023-06-14T13:01:17;27.70;87.80
30825;DHT22;17550;45.486;12.222;2023-06-14T13:03:43;27.80;86.80
30825;DHT22;17550;45.486;12.222;2023-06-14T13:06:09;27.90;89.00
30825;DHT22;17550;45.486;12.222;2023-06-14T13:08:34;27.90;90.30
30825;DHT22;17550;45.486;12.222;2023-06-14T13:11:02;28.00;89.30
30825;DHT22;17550;45.486;12.222;2023-06-14T13:13:28;28.20;88.40
30825;DHT22;17550;45.486;12.222;2023-06-14T13:15:54;28.20;87.80
30825;DHT22;17550;45.486;12.222;2023-06-14T13:18:19;27.90;89.20
30825;DHT22;17550;45.486;12.222;2023-06-14T13:20:46;27.80;89.20
30825;DHT22;17550;45.486;12.222;2023-06-14T13:23:12;27.90;88.40
30825;DHT22;17550;45.486;12.222;2023-06-14T13:25:38;28.00;88.50
30825;DHT22;17550;45.486;12.222;2023-06-14T13:28:04;28.00;87.90
30825;DHT22;17550;45.486;12.222;2023-06-14T13:30:30;28.00;87.50
30825;DHT22;17550;45.486;12.222;2023-06-14T13:33:00;27.90;88.20
30825;DHT22;17550;45.486;12.222;2023-06-14T13:35:26;27.80;88.20
30825;DHT22;17550;45.486;12.222;2023-06-14T13:37:52;27.80;90.10
30825;DHT22;17550;45.486;12.222;2023-06-14T13:40:18;27.70;90.80
30825;DHT22;17550;45.486;12.222;2023-06-14T13:42:45;27.50;91.00
30825;DHT22;17550;45.486;12.222;2023-06-14T13:45:12;27.80;91.20
30825;DHT22;17550;45.486;12.222;2023-06-14T13:47:38;27.80;91.00
30825;DHT22;17550;45.486;12.222;2023-06-14T13:50:05;28.00;91.40
30825;DHT22;17550;45.486;12.222;2023-06-14T13:52:31;28.40;91.00
30825;DHT22;17550;45.486;12.222;2023-06-14T13:54:57;28.70;90.70
30825;DHT22;17550;45.486;12.222;2023-06-14T13:57:22;28.80;90.30
30825;DHT22;17550;45.486;12.222;2023-06-14T13:59:48;28.70;90.00
30825;DHT22;17550;45.486;12.222;2023-06-14T14:02:14;28.60;90.60
30825;DHT22;17550;45.486;12.222;2023-06-14T14:04:40;28.60;90.60
30825;DHT22;17550;45.486;12.222;2023-06-14T14:07:07;28.70;90.70
30825;DHT22;17550;45.486;12.222;2023-06-14T14:09:33;28.80;90.20
30825;DHT22;17550;45.486;12.222;2023-06-14T14:12:00;28.70;90.60
30825;DHT22;17550;45.486;12.222;2023-06-14T14:14:27;28.70;89.50
30825;DHT22;17550;45.486;12.222;2023-06-14T14:16:53;28.20;90.20
30825;DHT22;17550;45.486;12.222;2023-06-14T14:19:21;27.80;90.50
30825;DHT22;17550;45.486;12.222;2023-06-14T14:21:47;27.80;90.80
30825;DHT22;17550;45.486;12.222;2023-06-14T14:24:13;27.80;90.30
30825;DHT22;17550;45.486;12.222;2023-06-14T14:26:39;27.70;90.40
30825;DHT22;17550;45.486;12.222;2023-06-14T14:29:05;27.70;90.00
30825;DHT22;17550;45.486;12.222;2023-06-14T14:31:31;27.60;90.40
30825;DHT22;17550;45.486;12.222;2023-06-14T14:33:57;27.80;90.30
30825;DHT22;17550;45.486;12.222;2023-06-14T14:36:23;28.10;90.10
30825;DHT22;17550;45.486;12.222;2023-06-14T14:38:48;28.00;88.50
30825;DHT22;17550;45.486;12.222;2023-06-14T14:41:14;28.00;88.30
30825;DHT22;17550;45.486;12.222;2023-06-14T14:43:40;27.80;87.50
30825;DHT22;17550;45.486;12.222;2023-06-14T14:46:05;27.90;88.10
30825;DHT22;17550;45.486;12.222;2023-06-14T14:48:31;28.00;87.70
30825;DHT22;17550;45.486;12.222;2023-06-14T14:50:57;28.10;86.50
30825;DHT22;17550;45.486;12.222;2023-06-14T14:53:23;28.00;85.40
30825;DHT22;17550;45.486;12.222;2023-06-14T14:55:49;28.10;87.00
30825;DHT22;17550;45.486;12.222;2023-06-14T14:58:15;28.00;86.70
30825;DHT22;17550;45.486;12.222;2023-06-14T15:00:47;28.10;87.20
30825;DHT22;17550;45.486;12.222;2023-06-14T15:03:13;28.40;86.30
30825;DHT22;17550;45.486;12.222;2023-06-14T15:05:39;28.60;85.40
30825;DHT22;17550;45.486;12.222;2023-06-14T15:08:05;28.80;85.40
30825;DHT22;17550;45.486;12.222;2023-06-14T15:10:40;28.80;84.00
30825;DHT22;17550;45.486;12.222;2023-06-14T15:13:07;28.70;84.50
30825;DHT22;17550;45.486;12.222;2023-06-14T15:15:36;28.60;84.30
30825;DHT22;17550;45.486;12.222;2023-06-14T15:18:02;28.70;83.80
30825;DHT22;17550;45.486;12.222;2023-06-14T15:20:28;28.50;84.40
30825;DHT22;17550;45.486;12.222;2023-06-14T15:22:54;28.60;82.40
30825;DHT22;17550;45.486;12.222;2023-06-14T15:25:29;28.70;82.40
30825;DHT22;17550;45.486;12.222;2023-06-14T15:27:57;28.80;82.10
30825;DHT22;17550;45.486;12.222;2023-06-14T15:30:23;28.80;81.80
30825;DHT22;17550;45.486;12.222;2023-06-14T15:32:49;28.80;81.60
30825;DHT22;17550;45.486;12.222;2023-06-14T15:35:16;28.90;81.40
30825;DHT22;17550;45.486;12.222;2023-06-14T15:37:43;28.80;80.20